RJAZ(METAR)
02/27 16:00
RJAZ 270700Z 06019G31KT 9999 BKN015 BKN021 08/04 Q1020 RMK A3013=
戻る
トップページへ戻る
IMOC Co,.Ltd.